Time;durP1;ratioP1;P1;durP2;ratioP2;P2;SDS_P1;SDS_P2;PMS_P1;PMS_P2;Temp;Humidity;BMP_temperature;BMP_pressure;BME280_temperature;BME280_humidity;BME280_pressure;Samples;Min_cycle;Max_cycle;Signal;HPM_P1;HPM_P2
2022/06/04 00:00:14;;;;;;;6.33;4.00;;;18.70;1.00;;;;;;5101831;27;20891;-76
2022/06/04 00:02:46;;;;;;;7.60;3.50;;;18.70;1.00;;;;;;5099985;27;20505;-75
2022/06/04 00:05:16;;;;;;;6.43;3.70;;;18.80;1.00;;;;;;5101483;27;20453;-75
2022/06/04 00:07:45;;;;;;;6.50;3.93;;;18.80;1.00;;;;;;5096859;27;20454;-75
2022/06/04 00:15:45;;;;;;;8.83;4.20;;;18.80;1.00;;;;;;5100388;27;20511;-76
2022/06/04 00:18:12;;;;;;;7.80;4.10;;;18.80;1.00;;;;;;5098876;27;20493;-76
2022/06/04 00:20:41;;;;;;;6.33;3.60;;;18.80;1.00;;;;;;5095955;27;20940;-75
2022/06/04 00:23:11;;;;;;;7.60;4.60;;;18.80;1.00;;;;;;5101736;27;20484;-75
2022/06/04 00:25:40;;;;;;;7.80;3.97;;;18.80;1.00;;;;;;5099859;27;20473;-75
2022/06/04 00:28:09;;;;;;;7.23;4.10;;;18.70;1.00;;;;;;5098584;27;20510;-75
2022/06/04 00:30:36;;;;;;;7.50;5.13;;;18.80;1.00;;;;;;5097419;27;20591;-75
2022/06/04 00:33:03;;;;;;;7.30;4.23;;;18.70;1.00;;;;;;5100632;27;20565;-74
2022/06/04 00:35:33;;;;;;;7.07;4.27;;;18.70;1.00;;;;;;5097515;27;20477;-74
2022/06/04 00:38:00;;;;;;;7.00;4.20;;;18.70;1.00;;;;;;5100660;27;20613;-76
2022/06/04 00:40:39;;;;;;;5.90;3.97;;;18.70;1.00;;;;;;5098326;27;20450;-77
2022/06/04 00:43:06;;;;;;;6.87;4.20;;;18.60;1.00;;;;;;5100868;27;20563;-76
2022/06/04 00:46:08;;;;;;;7.10;4.17;;;18.60;1.00;;;;;;5094039;27;20464;-76
2022/06/04 00:48:35;;;;;;;8.10;4.57;;;18.50;1.00;;;;;;5087981;27;20461;-76
2022/06/04 00:51:03;;;;;;;7.10;4.70;;;18.50;1.00;;;;;;5078706;28;20933;-75
2022/06/04 00:53:31;;;;;;;7.57;3.67;;;18.40;1.00;;;;;;5077882;28;20508;-75
2022/06/04 00:56:10;;;;;;;7.90;3.80;;;18.40;1.00;;;;;;5078644;28;20810;-74
2022/06/04 00:58:58;;;;;;;6.70;3.90;;;18.40;1.00;;;;;;5078389;28;20926;-74
2022/06/04 01:01:28;;;;;;;8.67;5.17;;;18.40;1.00;;;;;;5078521;28;20466;-76
2022/06/04 01:04:13;;;;;;;7.07;4.33;;;18.40;1.00;;;;;;5082214;28;21010;-76
2022/06/04 01:06:50;;;;;;;6.93;4.47;;;18.30;1.00;;;;;;5077831;28;20972;-76
2022/06/04 01:09:45;;;;;;;8.37;4.23;;;18.30;1.00;;;;;;5090491;27;20458;-76
2022/06/04 01:12:31;;;;;;;6.63;4.77;;;18.30;1.00;;;;;;5075115;27;20424;-76
2022/06/04 01:15:10;;;;;;;7.40;4.10;;;18.30;1.00;;;;;;5099747;27;20474;-76
2022/06/04 01:17:49;;;;;;;6.07;3.60;;;18.30;1.00;;;;;;5098831;27;21748;-77
2022/06/04 01:20:32;;;;;;;9.60;4.53;;;18.30;1.00;;;;;;5096885;27;20464;-76
2022/06/04 01:23:28;;;;;;;6.73;4.30;;;18.40;1.00;;;;;;5098678;27;21201;-76
2022/06/04 01:26:21;;;;;;;6.80;4.33;;;18.40;1.00;;;;;;5091142;27;20469;-77
2022/06/04 01:28:53;;;;;;;8.50;4.07;;;18.40;1.00;;;;;;5093468;27;20480;-76
2022/06/04 01:31:26;;;;;;;6.53;4.23;;;18.30;1.00;;;;;;5100196;27;20465;-75
2022/06/04 01:33:56;;;;;;;8.80;4.30;;;18.30;1.00;;;;;;5098600;27;20533;-76
2022/06/04 01:36:27;;;;;;;6.13;3.80;;;18.30;1.00;;;;;;5096866;27;20461;-76
2022/06/04 01:38:58;;;;;;;7.03;4.47;;;18.30;1.00;;;;;;5095647;27;21186;-75
2022/06/04 01:41:33;;;;;;;8.10;4.27;;;18.30;1.00;;;;;;5100871;27;20470;-75
2022/06/04 01:44:02;;;;;;;9.20;4.63;;;18.20;1.00;;;;;;5102088;27;20469;-75
2022/06/04 01:46:37;;;;;;;7.23;4.07;;;18.20;1.00;;;;;;5094638;27;20464;-74
2022/06/04 01:49:11;;;;;;;7.40;4.63;;;18.20;1.00;;;;;;5078674;28;20423;-75
2022/06/04 01:51:38;;;;;;;6.93;3.77;;;18.20;1.00;;;;;;5094384;27;20457;-76
2022/06/04 01:54:12;;;;;;;7.40;4.20;;;18.20;1.00;;;;;;5098674;27;20457;-75
2022/06/04 01:56:44;;;;;;;8.40;5.37;;;18.20;1.00;;;;;;5099395;27;20467;-76
2022/06/04 01:59:17;;;;;;;10.40;4.40;;;18.10;1.00;;;;;;5105610;27;20449;-76
2022/06/04 02:01:50;;;;;;;8.17;4.80;;;18.10;1.00;;;;;;5102561;27;21031;-76
2022/06/04 02:04:21;;;;;;;7.40;4.47;;;18.00;1.00;;;;;;5104980;27;20464;-76
2022/06/04 02:07:29;;;;;;;8.10;4.63;;;18.00;1.00;;;;;;5093040;27;20992;-76
2022/06/04 02:09:43;;;;;;;6.67;4.30;;;17.90;1.00;;;;;;5102501;27;20457;-76
2022/06/04 02:12:13;;;;;;;6.73;4.20;;;17.90;1.00;;;;;;5105194;27;20866;-76
2022/06/04 02:14:44;;;;;;;7.50;4.33;;;17.90;1.00;;;;;;5102453;27;20453;-75
2022/06/04 02:17:13;;;;;;;7.67;4.97;;;17.80;1.00;;;;;;5103781;27;21393;-74
2022/06/04 02:19:41;;;;;;;7.50;4.27;;;17.80;1.00;;;;;;5101815;27;20449;-76
2022/06/04 02:22:09;;;;;;;8.03;5.00;;;17.80;1.00;;;;;;5105066;27;20460;-75
2022/06/04 02:24:36;;;;;;;10.80;4.30;;;17.80;1.00;;;;;;5091211;27;20454;-76
2022/06/04 02:27:05;;;;;;;8.00;4.80;;;17.80;1.00;;;;;;5104132;27;20473;-76
2022/06/04 02:29:34;;;;;;;8.50;4.73;;;17.80;1.00;;;;;;5080365;27;20540;-77
2022/06/04 02:32:07;;;;;;;12.67;4.57;;;17.80;1.00;;;;;;5101171;27;20489;-76
2022/06/04 02:34:40;;;;;;;7.60;4.10;;;17.90;1.00;;;;;;5098950;27;20485;-77
2022/06/04 02:37:12;;;;;;;9.60;5.10;;;17.90;1.00;;;;;;5101978;27;20490;-75
2022/06/04 02:39:44;;;;;;;7.70;4.47;;;17.80;1.00;;;;;;5098596;27;20454;-77
2022/06/04 02:42:15;;;;;;;7.40;4.63;;;17.80;1.00;;;;;;5104092;27;20453;-77
2022/06/04 02:44:49;;;;;;;8.40;4.00;;;17.80;1.00;;;;;;5098045;27;20481;-77
2022/06/04 02:47:20;;;;;;;7.13;4.63;;;17.80;1.00;;;;;;5097712;27;20839;-74
2022/06/04 02:49:51;;;;;;;8.23;4.93;;;17.80;1.00;;;;;;5100867;27;22604;-77
2022/06/04 02:52:19;;;;;;;10.83;4.07;;;17.70;1.00;;;;;;5103806;27;20461;-74
2022/06/04 02:54:51;;;;;;;9.30;4.17;;;17.70;1.00;;;;;;5104332;27;20450;-76
2022/06/04 02:57:18;;;;;;;7.37;4.37;;;17.70;1.00;;;;;;5106031;27;20937;-75
2022/06/04 02:59:50;;;;;;;9.43;4.13;;;17.60;1.00;;;;;;5101624;27;21130;-75
2022/06/04 03:02:20;;;;;;;7.80;4.10;;;17.60;1.00;;;;;;5105193;27;21002;-76
2022/06/04 03:04:50;;;;;;;6.93;4.47;;;17.60;1.00;;;;;;5099429;27;20461;-74
2022/06/04 03:07:18;;;;;;;9.03;4.13;;;17.60;1.00;;;;;;5100625;27;20470;-76
2022/06/04 03:09:47;;;;;;;6.57;3.83;;;17.50;1.00;;;;;;5101993;27;20859;-74
2022/06/04 03:12:14;;;;;;;7.73;4.60;;;17.50;1.00;;;;;;5107548;27;20426;-76
2022/06/04 03:14:42;;;;;;;6.50;3.60;;;17.40;1.00;;;;;;5102220;27;20991;-75
2022/06/04 03:17:12;;;;;;;8.67;4.23;;;17.40;1.00;;;;;;5102990;27;20532;-76
2022/06/04 03:19:40;;;;;;;6.30;3.53;;;17.30;1.00;;;;;;5100038;27;20462;-76
2022/06/04 03:22:07;;;;;;;8.43;5.27;;;17.30;1.00;;;;;;5099370;27;20465;-76
2022/06/04 03:24:34;;;;;;;7.53;4.27;;;17.30;1.00;;;;;;5100872;27;20476;-75
2022/06/04 03:27:01;;;;;;;8.37;4.10;;;17.20;1.00;;;;;;5103948;27;20461;-76
2022/06/04 03:29:27;;;;;;;8.00;4.87;;;17.20;1.00;;;;;;5103006;27;20468;-77
2022/06/04 03:31:54;;;;;;;11.33;4.50;;;17.20;1.00;;;;;;5104000;27;20467;-76
2022/06/04 03:34:22;;;;;;;9.03;4.43;;;17.20;1.00;;;;;;5100670;27;20917;-75
2022/06/04 03:36:49;;;;;;;9.57;5.40;;;17.20;1.00;;;;;;5103611;27;20465;-76
2022/06/04 03:39:16;;;;;;;7.40;3.80;;;17.20;1.00;;;;;;5101458;27;20764;-77
2022/06/04 03:41:43;;;;;;;8.80;4.50;;;17.20;1.00;;;;;;5082875;27;20453;-77
2022/06/04 03:44:10;;;;;;;7.20;4.07;;;17.20;1.00;;;;;;5102472;27;20465;-76
2022/06/04 03:46:38;;;;;;;8.70;4.97;;;17.30;1.00;;;;;;5100233;27;20545;-76
2022/06/04 03:49:06;;;;;;;8.07;3.97;;;17.30;1.00;;;;;;5104556;27;20449;-75
2022/06/04 03:51:34;;;;;;;8.23;4.10;;;17.40;1.00;;;;;;5102549;27;20482;-76
2022/06/04 03:54:01;;;;;;;8.20;3.93;;;17.40;1.00;;;;;;5102780;27;20476;-77
2022/06/04 03:56:27;;;;;;;7.53;4.10;;;17.40;1.00;;;;;;5100804;27;24864;-75
2022/06/04 03:58:54;;;;;;;7.10;4.30;;;17.40;1.00;;;;;;5102637;27;20452;-75
2022/06/04 04:01:23;;;;;;;6.23;3.90;;;17.30;1.00;;;;;;5101671;27;20558;-76
2022/06/04 04:03:51;;;;;;;9.30;4.43;;;17.30;1.00;;;;;;5091490;27;20453;-75
2022/06/04 04:06:21;;;;;;;6.50;3.67;;;17.20;1.00;;;;;;5095704;27;20552;-74
2022/06/04 04:08:49;;;;;;;10.17;5.00;;;17.30;1.00;;;;;;5101218;27;20465;-73
2022/06/04 04:11:18;;;;;;;9.07;5.03;;;17.30;1.00;;;;;;5100058;27;20469;-76
2022/06/04 04:13:46;;;;;;;6.33;3.90;;;17.30;1.00;;;;;;5104232;27;20929;-76
2022/06/04 04:16:15;;;;;;;8.43;4.10;;;17.30;1.00;;;;;;5101888;27;20488;-75
2022/06/04 04:18:42;;;;;;;7.93;4.03;;;17.30;1.00;;;;;;5099526;27;20913;-74
2022/06/04 04:21:11;;;;;;;7.90;4.10;;;17.20;1.00;;;;;;5097506;27;20516;-75
2022/06/04 04:23:39;;;;;;;7.20;3.63;;;17.20;1.00;;;;;;5101630;27;20446;-76
2022/06/04 04:26:09;;;;;;;8.10;4.03;;;17.20;1.00;;;;;;5100849;27;20474;-77
2022/06/04 04:28:36;;;;;;;9.37;4.63;;;17.20;1.00;;;;;;5098980;27;20454;-76
2022/06/04 04:31:10;;;;;;;7.70;3.80;;;17.30;1.00;;;;;;5089218;27;20466;-76
2022/06/04 04:33:38;;;;;;;8.00;4.23;;;17.30;1.00;;;;;;5100644;27;20444;-75
2022/06/04 04:36:06;;;;;;;7.00;4.07;;;17.30;1.00;;;;;;5103654;27;20510;-76
2022/06/04 04:38:32;;;;;;;9.60;4.40;;;17.30;1.00;;;;;;5102665;27;20461;-76
2022/06/04 04:40:59;;;;;;;8.30;4.10;;;17.30;1.00;;;;;;5102957;27;20457;-75
2022/06/04 04:43:27;;;;;;;7.50;3.83;;;17.30;1.00;;;;;;5091257;27;20466;-75
2022/06/04 04:46:01;;;;;;;7.00;4.13;;;17.30;1.00;;;;;;5096845;27;20470;-77
2022/06/04 04:48:29;;;;;;;8.53;4.40;;;17.30;1.00;;;;;;5104241;27;21031;-75
2022/06/04 04:50:56;;;;;;;7.23;3.97;;;17.40;1.00;;;;;;5096754;27;20463;-74
2022/06/04 04:53:24;;;;;;;8.90;4.30;;;17.40;1.00;;;;;;5098328;27;20595;-75
2022/06/04 04:55:50;;;;;;;7.20;3.90;;;17.50;1.00;;;;;;5081519;27;20859;-74
2022/06/04 04:58:19;;;;;;;9.33;3.90;;;17.50;1.00;;;;;;5092793;27;20492;-74
2022/06/04 05:00:47;;;;;;;6.27;3.63;;;17.50;1.00;;;;;;5101393;27;20453;-76
2022/06/04 05:03:14;;;;;;;7.60;3.90;;;17.50;1.00;;;;;;5102581;27;20923;-76
2022/06/04 05:05:41;;;;;;;6.73;3.87;;;17.50;1.00;;;;;;5099221;27;21026;-76
2022/06/04 05:08:08;;;;;;;5.87;3.40;;;17.40;1.00;;;;;;5094205;27;20469;-76
2022/06/04 05:10:35;;;;;;;8.03;4.10;;;17.40;1.00;;;;;;5098357;27;20461;-76
2022/06/04 05:13:01;;;;;;;6.20;3.50;;;17.50;1.00;;;;;;5101543;27;20957;-77
2022/06/04 05:15:28;;;;;;;8.33;4.40;;;17.40;1.00;;;;;;5097314;27;20484;-76
2022/06/04 05:17:56;;;;;;;6.60;3.47;;;17.50;1.00;;;;;;5104557;27;21187;-76
2022/06/04 05:20:23;;;;;;;7.47;4.00;;;17.50;1.00;;;;;;5102961;27;20471;-76
2022/06/04 05:22:50;;;;;;;7.80;4.83;;;17.50;1.00;;;;;;5104517;27;20458;-77
2022/06/04 05:25:18;;;;;;;8.43;4.37;;;17.40;1.00;;;;;;5103372;27;20470;-76
2022/06/04 05:27:44;;;;;;;8.93;3.37;;;17.50;1.00;;;;;;5101010;27;20875;-74
2022/06/04 05:30:12;;;;;;;7.30;3.97;;;17.60;1.00;;;;;;5098547;27;21405;-74
2022/06/04 05:32:39;;;;;;;6.67;3.20;;;17.70;1.00;;;;;;5102413;27;20472;-75
2022/06/04 05:35:09;;;;;;;6.90;4.30;;;17.80;1.00;;;;;;5106107;27;20474;-76
2022/06/04 05:37:37;;;;;;;6.23;3.63;;;17.80;1.00;;;;;;5098206;27;20993;-75
2022/06/04 05:40:05;;;;;;;7.53;3.70;;;17.80;1.00;;;;;;5101450;27;20452;-75
2022/06/04 05:42:32;;;;;;;7.03;3.63;;;17.90;1.00;;;;;;5105273;27;20490;-77
2022/06/04 05:44:59;;;;;;;7.63;4.20;;;18.00;1.00;;;;;;5100925;27;20458;-75
2022/06/04 05:47:26;;;;;;;6.60;3.80;;;17.90;1.00;;;;;;5095877;27;20514;-76
2022/06/04 05:49:53;;;;;;;7.97;4.30;;;17.90;1.00;;;;;;5099026;27;20458;-75
2022/06/04 05:52:23;;;;;;;8.70;4.30;;;18.00;1.00;;;;;;5103006;27;20468;-76
2022/06/04 05:54:51;;;;;;;8.60;4.30;;;18.10;1.00;;;;;;5104486;27;20466;-75
2022/06/04 05:57:20;;;;;;;7.17;3.40;;;18.20;1.00;;;;;;5107397;27;20453;-75
2022/06/04 05:59:49;;;;;;;7.13;3.60;;;18.40;1.00;;;;;;5104043;27;20492;-76
2022/06/04 06:02:15;;;;;;;6.93;3.67;;;18.50;1.00;;;;;;5100090;27;20576;-75
2022/06/04 06:04:42;;;;;;;6.67;3.80;;;18.70;1.00;;;;;;5106848;27;20475;-76
2022/06/04 06:07:09;;;;;;;7.70;3.77;;;19.00;1.00;;;;;;5105199;27;20461;-73
2022/06/04 06:09:37;;;;;;;7.63;4.10;;;19.00;1.00;;;;;;5104014;27;20463;-76
2022/06/04 06:12:05;;;;;;;9.70;4.67;;;19.20;1.00;;;;;;5104762;27;20474;-75
2022/06/04 06:14:32;;;;;;;6.70;3.53;;;19.30;1.00;;;;;;5102899;27;20477;-76
2022/06/04 06:16:59;;;;;;;6.80;3.90;;;19.30;1.00;;;;;;5106613;27;20449;-76
2022/06/04 06:19:26;;;;;;;7.50;4.00;;;19.30;1.00;;;;;;5101241;27;20474;-76
2022/06/04 06:21:54;;;;;;;7.60;4.17;;;19.30;1.00;;;;;;5102553;27;20454;-75
2022/06/04 06:24:22;;;;;;;7.67;4.07;;;19.30;1.00;;;;;;5103934;27;20461;-75
2022/06/04 06:26:53;;;;;;;7.43;4.63;;;19.30;1.00;;;;;;5106928;27;20446;-74
2022/06/04 06:29:23;;;;;;;9.33;3.93;;;19.40;1.00;;;;;;5102737;27;20519;-75
2022/06/04 06:31:50;;;;;;;8.07;4.10;;;19.50;1.00;;;;;;5109713;27;20931;-74
2022/06/04 06:34:17;;;;;;;9.60;4.70;;;19.50;1.00;;;;;;5104516;27;21333;-75
2022/06/04 06:36:46;;;;;;;7.73;4.67;;;19.60;1.00;;;;;;5106231;27;20477;-74
2022/06/04 06:39:14;;;;;;;6.60;3.60;;;19.70;1.00;;;;;;5103000;27;20473;-75
2022/06/04 06:41:41;;;;;;;6.93;3.90;;;19.90;1.00;;;;;;5105991;27;20481;-75
2022/06/04 06:44:13;;;;;;;8.97;3.57;;;20.00;1.00;;;;;;5105096;27;20818;-76
2022/06/04 06:46:41;;;;;;;7.70;5.20;;;20.20;1.00;;;;;;5107771;27;21519;-76
2022/06/04 06:49:11;;;;;;;9.37;4.60;;;20.40;1.00;;;;;;5109368;27;20936;-76
2022/06/04 06:51:40;;;;;;;10.33;4.80;;;20.70;1.00;;;;;;5105805;27;20450;-75
2022/06/04 06:54:08;;;;;;;7.70;4.50;;;21.10;1.00;;;;;;5106169;27;20479;-73
2022/06/04 06:56:40;;;;;;;8.30;5.80;;;21.20;1.00;;;;;;5088808;28;20515;-75
2022/06/04 06:59:07;;;;;;;8.00;4.57;;;21.40;1.00;;;;;;5108549;27;20495;-76
2022/06/04 07:01:37;;;;;;;8.27;4.40;;;21.50;1.00;;;;;;5103427;27;20497;-77
2022/06/04 07:04:05;;;;;;;7.03;4.40;;;21.50;1.00;;;;;;5103204;27;20476;-74
2022/06/04 07:06:35;;;;;;;8.10;4.60;;;21.60;1.00;;;;;;5105144;27;20460;-75
2022/06/04 07:09:04;;;;;;;10.40;4.63;;;21.60;1.00;;;;;;5106965;27;20488;-75
2022/06/04 07:11:31;;;;;;;9.23;5.50;;;21.70;1.00;;;;;;5103845;27;20531;-75
2022/06/04 07:13:58;;;;;;;9.07;5.07;;;21.70;1.00;;;;;;5110647;27;20492;-76
2022/06/04 07:16:25;;;;;;;8.73;4.87;;;21.80;1.00;;;;;;5100804;27;20476;-75
2022/06/04 07:18:53;;;;;;;7.83;5.47;;;21.70;1.00;;;;;;5102157;27;20556;-76
2022/06/04 07:21:20;;;;;;;9.80;5.00;;;21.70;1.00;;;;;;5107439;27;20471;-74
2022/06/04 07:23:48;;;;;;;8.63;4.50;;;21.80;1.00;;;;;;5104495;27;20457;-75
2022/06/04 07:26:15;;;;;;;7.90;4.60;;;21.90;1.00;;;;;;5104540;27;20544;-76
2022/06/04 07:28:42;;;;;;;11.23;4.67;;;21.80;1.00;;;;;;5104741;27;20558;-76
2022/06/04 07:31:11;;;;;;;8.97;5.00;;;21.60;1.00;;;;;;5106166;27;21246;-76
2022/06/04 07:33:38;;;;;;;9.40;5.10;;;21.60;1.00;;;;;;5103400;27;20465;-74
2022/06/04 07:36:06;;;;;;;8.47;4.50;;;21.60;1.00;;;;;;5100160;27;20465;-75
2022/06/04 07:38:33;;;;;;;8.43;4.47;;;21.50;1.00;;;;;;5101106;27;20831;-75
2022/06/04 07:41:00;;;;;;;7.77;4.87;;;21.30;1.00;;;;;;5105351;27;20460;-76
2022/06/04 07:43:27;;;;;;;7.33;5.17;;;21.40;1.00;;;;;;5100558;27;20501;-76
2022/06/04 07:45:54;;;;;;;7.53;3.80;;;21.40;1.00;;;;;;5103491;27;20453;-75
2022/06/04 07:48:21;;;;;;;7.77;4.30;;;21.30;1.00;;;;;;5101112;27;20896;-74
2022/06/04 07:50:48;;;;;;;10.67;5.37;;;21.30;1.00;;;;;;5104293;27;20455;-77
2022/06/04 07:53:16;;;;;;;7.00;3.83;;;21.30;1.00;;;;;;5101512;27;20509;-75
2022/06/04 07:55:45;;;;;;;8.30;4.90;;;21.20;1.00;;;;;;5086137;28;20445;-76
2022/06/04 07:58:12;;;;;;;10.80;4.57;;;20.90;1.00;;;;;;5104574;27;20456;-75
2022/06/04 08:00:39;;;;;;;8.00;4.37;;;20.90;1.00;;;;;;5106602;27;20956;-76
2022/06/04 08:03:07;;;;;;;7.30;3.97;;;20.90;1.00;;;;;;5109861;27;20926;-77
2022/06/04 08:05:36;;;;;;;8.87;5.80;;;20.90;1.00;;;;;;5100696;27;20449;-76
2022/06/04 08:08:03;;;;;;;8.40;4.40;;;21.10;1.00;;;;;;5101629;27;20560;-75
2022/06/04 08:10:32;;;;;;;7.30;4.50;;;21.10;1.00;;;;;;5097229;27;20462;-76
2022/06/04 08:12:59;;;;;;;8.07;4.30;;;21.10;1.00;;;;;;5106527;27;20920;-75
2022/06/04 08:15:28;;;;;;;7.90;4.60;;;21.00;1.00;;;;;;5098473;27;20457;-76
2022/06/04 08:17:55;;;;;;;8.47;3.67;;;21.10;1.00;;;;;;5105044;27;20454;-76
2022/06/04 08:20:22;;;;;;;7.00;3.53;;;21.10;1.00;;;;;;5103083;27;20600;-76
2022/06/04 08:22:49;;;;;;;6.93;3.73;;;21.10;1.00;;;;;;5104147;27;20448;-76
2022/06/04 08:25:17;;;;;;;8.10;3.83;;;21.10;1.00;;;;;;5102490;27;20453;-79
2022/06/04 08:27:47;;;;;;;7.90;4.30;;;21.00;1.00;;;;;;5107404;27;20481;-78
2022/06/04 08:30:15;;;;;;;7.03;3.50;;;21.10;1.00;;;;;;5107650;27;20466;-77
2022/06/04 08:32:44;;;;;;;6.80;3.60;;;21.00;1.00;;;;;;5103575;27;20478;-77
2022/06/04 08:35:11;;;;;;;7.90;4.00;;;21.00;1.00;;;;;;5104593;27;21208;-79
2022/06/04 08:37:38;;;;;;;7.90;4.03;;;21.10;1.00;;;;;;5102492;27;21156;-78
2022/06/04 08:40:06;;;;;;;7.70;3.43;;;21.20;1.00;;;;;;5100304;27;20614;-78
2022/06/04 08:42:56;;;;;;;7.87;3.70;;;21.20;1.00;;;;;;5098111;27;20501;-78
2022/06/04 08:45:23;;;;;;;9.43;4.30;;;21.30;1.00;;;;;;5088220;27;20454;-76
2022/06/04 08:47:53;;;;;;;8.57;3.80;;;21.40;1.00;;;;;;5101808;27;20446;-77
2022/06/04 08:50:23;;;;;;;9.13;3.77;;;21.40;1.00;;;;;;5108368;27;20451;-78
2022/06/04 08:52:59;;;;;;;7.83;4.13;;;21.50;1.00;;;;;;5089084;28;20434;-78
2022/06/04 08:58:36;;;;;;;6.67;3.70;;;21.80;1.00;;;;;;5108716;27;20513;-78
2022/06/04 09:01:07;;;;;;;7.40;4.50;;;21.80;1.00;;;;;;5113216;27;20495;-77
2022/06/04 09:03:41;;;;;;;13.90;5.90;;;21.80;1.00;;;;;;5109001;27;20489;-77
2022/06/04 09:06:18;;;;;;;8.97;4.60;;;21.90;1.00;;;;;;5112581;27;20457;-77
2022/06/04 09:08:52;;;;;;;17.00;14.87;;;22.10;1.00;;;;;;5112411;27;20453;-78
2022/06/04 09:11:28;;;;;;;7.97;4.20;;;22.10;1.00;;;;;;5111494;27;20485;-77
2022/06/04 09:14:19;;;;;;;9.47;4.07;;;22.20;1.00;;;;;;5108188;27;20499;-77
2022/06/04 09:16:49;;;;;;;8.43;4.40;;;22.20;1.00;;;;;;5101249;27;20458;-77
2022/06/04 09:19:20;;;;;;;10.07;3.70;;;22.20;1.00;;;;;;5113856;27;20460;-78
2022/06/04 09:21:49;;;;;;;6.90;3.83;;;22.20;1.00;;;;;;5111221;27;20492;-79
2022/06/04 09:24:16;;;;;;;13.30;5.50;;;22.20;1.00;;;;;;5113416;27;20454;-74
2022/06/04 09:26:48;;;;;;;8.50;4.40;;;22.30;1.00;;;;;;5116620;27;20445;-79
2022/06/04 09:29:28;;;;;;;17.57;13.93;;;22.50;1.00;;;;;;5111802;27;20453;-78
2022/06/04 09:32:02;;;;;;;13.20;5.43;;;22.70;1.00;;;;;;5115887;27;20445;-77
2022/06/04 09:34:31;;;;;;;8.00;4.13;;;22.90;1.00;;;;;;5112718;27;20469;-77
2022/06/04 09:36:59;;;;;;;7.13;4.20;;;23.00;1.00;;;;;;5113953;27;20421;-77
2022/06/04 09:39:29;;;;;;;7.03;4.13;;;23.00;1.00;;;;;;5111995;27;20461;-75
2022/06/04 09:41:59;;;;;;;8.03;3.53;;;23.20;1.00;;;;;;5116262;27;20452;-75
2022/06/04 09:44:31;;;;;;;10.07;3.40;;;23.20;1.00;;;;;;5112381;27;20450;-77
2022/06/04 09:47:02;;;;;;;9.83;3.80;;;23.10;1.00;;;;;;5107421;27;20455;-78
2022/06/04 09:49:44;;;;;;;7.10;3.00;;;23.10;1.00;;;;;;5112418;27;20459;-76
2022/06/04 09:52:22;;;;;;;8.10;4.07;;;23.00;1.00;;;;;;5109101;27;20466;-76
2022/06/04 09:54:55;;;;;;;6.53;3.70;;;22.90;1.00;;;;;;5106945;27;21008;-76
2022/06/04 09:57:31;;;;;;;9.77;4.17;;;22.90;1.00;;;;;;5094438;27;20478;-77
2022/06/04 10:00:05;;;;;;;11.40;9.00;;;22.90;1.00;;;;;;5112010;27;20464;-78
2022/06/04 10:02:32;;;;;;;7.43;3.90;;;22.90;1.00;;;;;;5114831;27;20476;-77
2022/06/04 10:05:03;;;;;;;7.10;4.60;;;23.00;1.00;;;;;;5113073;27;20565;-77
2022/06/04 10:07:32;;;;;;;9.63;3.80;;;23.20;1.00;;;;;;5108399;27;20450;-77
2022/06/04 10:10:09;;;;;;;8.80;3.73;;;23.40;1.00;;;;;;5107391;27;20624;-77
2022/06/04 10:15:38;;;;;;;7.53;3.77;;;23.40;1.00;;;;;;5100893;27;20469;-77
2022/06/04 10:18:28;;;;;;;8.37;3.90;;;23.30;1.00;;;;;;5105213;27;20958;-78
2022/06/04 10:21:00;;;;;;;11.00;5.10;;;23.20;1.00;;;;;;5110995;27;20539;-76
2022/06/04 10:23:29;;;;;;;8.10;3.60;;;23.30;1.00;;;;;;5111844;27;20437;-76
2022/06/04 10:26:33;;;;;;;8.47;3.90;;;23.40;1.00;;;;;;5105831;27;20472;-76
2022/06/04 10:29:19;;;;;;;7.53;4.10;;;23.50;1.00;;;;;;5110572;27;20450;-77
2022/06/04 10:31:56;;;;;;;6.73;3.70;;;23.70;1.00;;;;;;5110572;27;21356;-77
2022/06/04 10:34:36;;;;;;;7.83;3.57;;;23.80;1.00;;;;;;5112563;27;20421;-77
2022/06/04 10:37:13;;;;;;;6.30;3.50;;;23.90;1.00;;;;;;5103282;27;20473;-78
2022/06/04 10:39:51;;;;;;;5.97;3.30;;;24.10;1.00;;;;;;5103277;27;20449;-77
2022/06/04 10:42:30;;;;;;;7.20;3.63;;;24.20;1.00;;;;;;5107616;27;20466;-78
2022/06/04 10:45:09;;;;;;;7.13;4.10;;;24.50;1.00;;;;;;5108681;27;20621;-78
2022/06/04 10:47:47;;;;;;;7.80;3.63;;;24.80;1.00;;;;;;5104904;27;20472;-77
2022/06/04 10:51:25;;;;;;;5.60;3.37;;;24.90;1.00;;;;;;5093745;27;20457;-77
2022/06/04 10:53:34;;;;;;;6.97;3.60;;;24.90;1.00;;;;;;5095773;27;20491;-76
2022/06/04 10:56:08;;;;;;;6.93;3.87;;;24.90;1.00;;;;;;5093279;27;20457;-77
2022/06/04 10:58:41;;;;;;;5.93;3.20;;;25.10;1.00;;;;;;5094783;27;20476;-77
2022/06/04 11:01:14;;;;;;;6.90;3.63;;;25.80;1.00;;;;;;5108206;27;20422;-77
2022/06/04 11:03:52;;;;;;;7.20;3.20;;;26.40;1.00;;;;;;5108336;27;20469;-77
2022/06/04 11:06:26;;;;;;;7.80;4.70;;;27.30;1.00;;;;;;5111571;27;20986;-77
2022/06/04 11:08:56;;;;;;;6.20;2.90;;;28.20;1.00;;;;;;5109213;27;20502;-77
2022/06/04 11:11:28;;;;;;;8.33;5.43;;;28.30;1.00;;;;;;5107339;27;20455;-76
2022/06/04 11:14:02;;;;;;;5.80;3.03;;;28.30;1.00;;;;;;5111953;27;20498;-77
2022/06/04 11:16:34;;;;;;;5.50;3.20;;;28.10;1.00;;;;;;5107129;27;21285;-77
2022/06/04 11:19:11;;;;;;;10.37;4.60;;;28.00;1.00;;;;;;5106256;27;20473;-76
2022/06/04 11:21:43;;;;;;;7.30;3.60;;;27.90;1.00;;;;;;5111403;27;20441;-76
2022/06/04 11:24:16;;;;;;;7.50;3.67;;;28.00;1.00;;;;;;5105328;27;20699;-76
2022/06/04 11:26:49;;;;;;;6.53;3.10;;;28.20;1.00;;;;;;5110093;27;20446;-79
2022/06/04 11:29:18;;;;;;;5.40;3.00;;;28.40;1.00;;;;;;5104666;27;20474;-76
2022/06/04 11:31:57;;;;;;;7.83;3.03;;;29.70;1.00;;;;;;5108266;27;20980;-81
2022/06/04 11:34:52;;;;;;;7.90;3.43;;;30.90;1.00;;;;;;5108635;27;20945;-79
2022/06/04 11:37:34;;;;;;;6.37;3.60;;;31.60;1.00;;;;;;5108140;27;20511;-77
2022/06/04 11:40:16;;;;;;;8.50;3.57;;;31.80;1.00;;;;;;5103474;27;20976;-77
2022/06/04 11:42:56;;;;;;;6.20;4.10;;;31.10;1.00;;;;;;5109563;27;20492;-77
2022/06/04 11:45:40;;;;;;;5.77;3.60;;;30.50;1.00;;;;;;5107808;27;20461;-76
2022/06/04 11:48:31;;;;;;;5.17;2.77;;;29.80;1.00;;;;;;5106539;27;20465;-78
2022/06/04 11:51:19;;;;;;;6.60;3.23;;;29.40;1.00;;;;;;5103535;27;20473;-78
2022/06/04 11:53:51;;;;;;;7.37;3.13;;;28.80;1.00;;;;;;5108517;27;20460;-76
2022/06/04 11:56:30;;;;;;;6.60;3.50;;;28.30;1.00;;;;;;5107844;27;22074;-78
2022/06/04 11:59:14;;;;;;;5.40;3.00;;;28.10;1.00;;;;;;5110068;27;20533;-77
2022/06/04 12:01:45;;;;;;;7.00;3.53;;;28.20;1.00;;;;;;5101135;27;20971;-77
2022/06/04 12:04:20;;;;;;;10.70;4.47;;;28.40;1.00;;;;;;5107830;27;20446;-76
2022/06/04 12:06:56;;;;;;;6.47;3.80;;;28.50;1.00;;;;;;5106874;27;20896;-77
2022/06/04 12:09:28;;;;;;;6.90;4.07;;;28.80;1.00;;;;;;5105986;27;20475;-77
2022/06/04 12:12:01;;;;;;;5.47;2.90;;;29.10;1.00;;;;;;5105223;27;20461;-78
2022/06/04 12:14:37;;;;;;;8.83;2.90;;;29.30;1.00;;;;;;5108180;27;20460;-78
2022/06/04 12:17:14;;;;;;;6.60;3.60;;;29.30;1.00;;;;;;5105505;27;20549;-76
2022/06/04 12:25:38;;;;;;;7.80;3.43;;;30.10;1.00;;;;;;5106009;27;20473;-78
2022/06/04 12:28:24;;;;;;;7.50;3.57;;;29.80;1.00;;;;;;5103565;27;20450;-77
2022/06/04 12:30:54;;;;;;;7.10;3.13;;;29.40;1.00;;;;;;5104037;27;20495;-79
2022/06/04 12:33:32;;;;;;;8.10;3.90;;;29.00;1.00;;;;;;5107099;27;20468;-78
2022/06/04 12:36:04;;;;;;;5.77;4.30;;;28.60;1.00;;;;;;5102766;27;20461;-77
2022/06/04 12:38:35;;;;;;;6.63;3.63;;;28.60;1.00;;;;;;5103264;27;20501;-78
2022/06/04 12:41:16;;;;;;;5.90;2.70;;;28.60;1.00;;;;;;5104630;27;20536;-77
2022/06/04 12:43:48;;;;;;;8.30;3.20;;;28.60;1.00;;;;;;5107903;27;21342;-76
2022/06/04 12:46:33;;;;;;;6.60;4.20;;;28.40;1.00;;;;;;5103178;27;20572;-78
2022/06/04 12:49:32;;;;;;;6.20;3.90;;;28.50;1.00;;;;;;5100721;27;20570;-77
2022/06/04 12:52:05;;;;;;;6.60;2.93;;;28.70;1.00;;;;;;5098185;27;20457;-78
2022/06/04 12:54:49;;;;;;;5.27;3.10;;;28.60;1.00;;;;;;5105165;27;20596;-78
2022/06/04 12:57:31;;;;;;;5.93;3.30;;;28.60;1.00;;;;;;5105904;27;20505;-76
2022/06/04 13:00:26;;;;;;;6.17;3.23;;;28.50;1.00;;;;;;5108793;27;20460;-79
2022/06/04 13:03:00;;;;;;;6.77;3.33;;;28.30;1.00;;;;;;5078921;27;20939;-76
2022/06/04 13:05:29;;;;;;;5.97;3.50;;;28.00;1.00;;;;;;5110718;27;20852;-78
2022/06/04 13:08:02;;;;;;;5.97;3.33;;;27.80;1.00;;;;;;5106217;27;20461;-78
2022/06/04 13:10:37;;;;;;;5.53;3.10;;;27.70;1.00;;;;;;5106104;27;20545;-77
2022/06/04 13:13:13;;;;;;;5.37;2.63;;;28.10;1.00;;;;;;5106107;27;20460;-78
2022/06/04 13:15:54;;;;;;;6.10;2.90;;;29.30;1.00;;;;;;5108249;27;20461;-78
2022/06/04 13:18:28;;;;;;;5.97;3.67;;;30.10;1.00;;;;;;5104964;27;20539;-77
2022/06/04 13:20:58;;;;;;;5.40;2.90;;;30.10;1.00;;;;;;5108765;27;20475;-77
2022/06/04 13:23:32;;;;;;;10.77;4.57;;;30.10;1.00;;;;;;5103565;27;20465;-77
2022/06/04 13:26:21;;;;;;;7.70;3.03;;;30.10;1.00;;;;;;5100346;27;20469;-79
2022/06/04 13:28:49;;;;;;;5.13;2.60;;;30.00;1.00;;;;;;5087187;27;20491;-77
2022/06/04 13:31:21;;;;;;;5.63;3.20;;;29.60;1.00;;;;;;5105554;28;20858;-77
2022/06/04 13:33:48;;;;;;;5.30;3.33;;;29.60;1.00;;;;;;5104387;27;20458;-76
2022/06/04 13:36:17;;;;;;;5.10;2.60;;;31.00;1.00;;;;;;5106390;27;20915;-76